Time;durP1;ratioP1;P1;durP2;ratioP2;P2;SDS_P1;SDS_P2;PMS_P1;PMS_P2;Temp;Humidity;BMP_temperature;BMP_pressure;BME280_temperature;BME280_humidity;BME280_pressure;Samples;Min_cycle;Max_cycle;Signal;HPM_P1;HPM_P2
2023/09/11 00:01:51;;;;;;;0.60;0.60;;;;;;;14.01;87.89;97356.84;5067511;28;20048;-65
2023/09/11 00:04:18;;;;;;;0.60;0.60;;;;;;;13.96;88.45;97354.44;5067634;28;20151;-66
2023/09/11 00:06:45;;;;;;;0.60;0.60;;;;;;;14.01;87.49;97354.88;5067550;28;20404;-65
2023/09/11 00:09:11;;;;;;;0.50;0.50;;;;;;;13.92;87.73;97350.81;5067219;28;20144;-65
2023/09/11 00:11:38;;;;;;;0.57;0.57;;;;;;;13.96;87.78;97351.66;5067259;28;20049;-64
2023/09/11 00:14:05;;;;;;;0.50;0.50;;;;;;;11.28;88.08;96935.84;5065946;28;20059;-66
2023/09/11 00:16:32;;;;;;;0.60;0.60;;;;;;;13.97;88.06;97353.25;5067401;28;20085;-65
2023/09/11 00:18:58;;;;;;;0.60;0.60;;;;;;;13.62;87.56;97298.03;5067317;28;20059;-64
2023/09/11 00:21:26;;;;;;;0.60;0.60;;;;;;;14.05;87.60;97354.91;5066998;28;20052;-65
2023/09/11 00:23:52;;;;;;;0.60;0.60;;;;;;;14.14;86.19;97344.22;5067466;28;20045;-65
2023/09/11 00:26:19;;;;;;;0.60;0.60;;;;;;;13.54;86.82;97276.88;5066071;28;20053;-67
2023/09/11 00:28:46;;;;;;;0.55;0.55;;;;;;;14.06;86.55;97345.34;5065397;28;20481;-64
2023/09/11 00:31:12;;;;;;;0.60;0.60;;;;;;;13.97;86.21;97353.25;5067448;28;20049;-65
2023/09/11 00:33:39;;;;;;;0.60;0.60;;;;;;;13.93;86.44;97346.81;5066993;28;20060;-64
2023/09/11 00:36:06;;;;;;;0.60;0.60;;;;;;;13.55;86.87;97295.97;5066767;28;20052;-65
2023/09/11 00:38:32;;;;;;;0.60;0.60;;;;;;;13.60;87.35;97301.22;5065628;28;20044;-64
2023/09/11 00:40:59;;;;;;;0.55;0.55;;;;;;;13.84;88.13;97340.78;5067525;28;20060;-65
2023/09/11 00:43:26;;;;;;;0.60;0.60;;;;;;;13.44;88.35;97280.34;5053915;28;20059;-64
2023/09/11 00:45:55;;;;;;;0.60;0.60;;;;;;;13.60;87.89;97306.78;5046474;28;20055;-64
2023/09/11 00:48:23;;;;;;;0.60;0.60;;;;;;;13.36;90.69;97343.50;5046873;28;20128;-64
2023/09/11 00:50:50;;;;;;;0.60;0.60;;;;;;;13.35;91.88;97336.34;5028314;28;20589;-64
2023/09/11 00:53:19;;;;;;;0.50;0.50;;;;;;;13.41;91.78;97332.03;5046424;28;20049;-63
2023/09/11 00:55:47;;;;;;;0.60;0.60;;;;;;;13.05;90.01;97251.34;5046590;28;20053;-63
2023/09/11 00:58:17;;;;;;;0.50;0.50;;;;;;;13.40;90.07;97308.16;5046570;28;20446;-64
2023/09/11 01:00:48;;;;;;;0.50;0.50;;;;;;;13.50;90.29;97312.22;5028378;28;20088;-64
2023/09/11 01:03:15;;;;;;;0.60;0.60;;;;;;;13.54;90.23;97319.44;5028453;28;20045;-65
2023/09/11 01:05:43;;;;;;;0.60;0.60;;;;;;;13.45;90.68;97307.81;5028277;28;20053;-64
2023/09/11 01:08:10;;;;;;;0.50;0.50;;;;;;;13.58;90.13;97325.03;5046626;28;20441;-64
2023/09/11 01:10:37;;;;;;;0.52;0.52;;;;;;;13.10;90.55;97237.88;5046015;28;20503;-64
2023/09/11 01:13:04;;;;;;;0.60;0.60;;;;;;;13.64;90.38;97315.94;5046519;28;20057;-65
2023/09/11 01:15:42;;;;;;;0.60;0.60;;;;;;;13.80;89.02;97318.47;5045814;28;20533;-65
2023/09/11 01:18:41;;;;;;;0.60;0.60;;;;;;;13.67;89.40;97320.75;5028350;28;20057;-65
2023/09/11 01:21:14;;;;;;;0.60;0.60;;;;;;;13.52;90.02;97316.22;5039007;28;20672;-64
2023/09/11 01:24:13;;;;;;;0.70;0.70;;;;;;;13.51;89.37;97331.31;5028540;28;20045;-66
2023/09/11 01:26:52;;;;;;;0.50;0.50;;;;;;;13.29;90.63;97315.56;5045888;28;20530;-64
2023/09/11 01:29:26;;;;;;;0.50;0.50;;;;;;;13.36;91.40;97307.31;5027741;28;20060;-64
2023/09/11 01:31:58;;;;;;;;;;;;;;;13.39;91.47;97312.13;5028179;28;20563;-64
2023/09/11 01:34:25;;;;;;;0.60;0.60;;;;;;;13.02;91.82;97280.75;5045891;28;19974;-65
2023/09/11 01:36:51;;;;;;;0.60;0.60;;;;;;;13.19;91.43;97305.16;5045846;28;20495;-65
2023/09/11 01:39:18;;;;;;;0.55;0.55;;;;;;;13.42;91.07;97307.78;5027982;28;20055;-65
2023/09/11 01:41:46;;;;;;;0.60;0.60;;;;;;;13.20;90.33;97258.66;5043950;28;20053;-66
2023/09/11 01:44:18;;;;;;;0.60;0.60;;;;;;;13.53;90.29;97306.69;5028040;28;20081;-65
2023/09/11 01:46:47;;;;;;;0.55;0.55;;;;;;;12.25;89.94;97124.16;5045315;28;20159;-66
2023/09/11 01:49:15;;;;;;;0.60;0.60;;;;;;;13.62;90.12;97309.94;5045621;28;20452;-66
2023/09/11 01:51:42;;;;;;;0.60;0.60;;;;;;;13.54;90.26;97319.44;5045476;28;20886;-64
2023/09/11 01:54:10;;;;;;;0.50;0.50;;;;;;;13.65;89.35;97303.66;5045590;28;20065;-65
2023/09/11 01:56:37;;;;;;;0.60;0.60;;;;;;;13.53;89.89;97301.13;5045026;28;20529;-65
2023/09/11 01:59:04;;;;;;;0.50;0.50;;;;;;;13.50;89.05;97301.91;5027827;28;20072;-65
2023/09/11 02:01:31;;;;;;;0.60;0.60;;;;;;;13.57;88.42;97296.41;5027502;28;20060;-65
2023/09/11 02:03:57;;;;;;;0.50;0.50;;;;;;;13.52;89.20;97298.72;5045401;28;20060;-64
2023/09/11 02:06:24;;;;;;;0.60;0.60;;;;;;;13.47;89.19;97274.84;5045408;28;20044;-65
2023/09/11 02:08:51;;;;;;;0.60;0.60;;;;;;;13.56;88.96;97305.16;5032223;28;20070;-65
2023/09/11 02:11:18;;;;;;;0.50;0.50;;;;;;;13.29;87.91;97257.16;5064947;28;20462;-65
2023/09/11 02:13:44;;;;;;;0.52;0.52;;;;;;;13.41;89.00;97293.06;5064333;28;20052;-65
2023/09/11 02:16:11;;;;;;;0.60;0.60;;;;;;;13.34;89.92;97286.63;5065268;28;20052;-68
2023/09/11 02:18:39;;;;;;;0.50;0.50;;;;;;;13.28;90.27;97277.81;5046787;28;20056;-65
2023/09/11 02:21:06;;;;;;;0.60;0.60;;;;;;;13.41;89.80;97281.94;5064536;28;20059;-66
2023/09/11 02:23:33;;;;;;;0.60;0.60;;;;;;;12.61;89.94;97162.28;5046938;28;20059;-65
2023/09/11 02:26:00;;;;;;;0.50;0.50;;;;;;;12.91;90.65;97232.50;5064196;28;20522;-65
2023/09/11 02:28:27;;;;;;;0.50;0.50;;;;;;;13.00;89.18;97224.69;5064528;28;20084;-66
2023/09/11 02:30:54;;;;;;;0.60;0.60;;;;;;;13.16;90.82;97275.31;5046485;28;20059;-65
2023/09/11 02:33:21;;;;;;;0.57;0.57;;;;;;;13.06;91.59;97276.00;5046985;28;20052;-66
2023/09/11 02:35:56;;;;;;;0.50;0.50;;;;;;;13.11;91.78;97270.09;5064787;28;20088;-64
2023/09/11 02:38:23;;;;;;;0.60;0.60;;;;;;;13.02;92.12;97269.63;5064876;28;20392;-64
2023/09/11 02:40:50;;;;;;;0.60;0.60;;;;;;;12.86;92.21;97249.53;5064303;28;20052;-63
2023/09/11 02:43:34;;;;;;;0.50;0.50;;;;;;;12.83;92.82;97250.28;5064332;28;20106;-64
2023/09/11 02:46:00;;;;;;;0.60;0.60;;;;;;;10.50;92.70;96879.38;5064404;28;20133;-64
2023/09/11 02:48:27;;;;;;;0.60;0.60;;;;;;;13.08;92.13;97279.22;5064619;28;20052;-64
2023/09/11 02:50:54;;;;;;;0.60;0.60;;;;;;;13.02;91.92;97275.16;5046519;28;20126;-63
2023/09/11 02:53:21;;;;;;;0.60;0.60;;;;;;;12.94;92.73;97267.91;5064578;28;20056;-64
2023/09/11 02:55:48;;;;;;;0.50;0.50;;;;;;;12.81;93.78;97269.31;5064517;28;20052;-64
2023/09/11 02:58:15;;;;;;;0.60;0.60;;;;;;;12.81;93.07;97260.19;5064711;28;20392;-64
2023/09/11 03:00:42;;;;;;;0.57;0.57;;;;;;;12.38;92.66;97174.72;5064011;28;20136;-64
2023/09/11 03:03:09;;;;;;;0.50;0.50;;;;;;;12.97;92.78;97269.91;5064334;28;20051;-65
2023/09/11 03:05:36;;;;;;;0.60;0.60;;;;;;;12.67;92.48;97221.91;5064533;28;20060;-64
2023/09/11 03:08:04;;;;;;;0.60;0.60;;;;;;;12.72;92.18;97221.56;5063232;28;20526;-63
2023/09/11 03:10:32;;;;;;;0.50;0.50;;;;;;;12.99;91.81;97269.53;5063662;28;20063;-65
2023/09/11 03:12:59;;;;;;;0.60;0.60;;;;;;;13.04;91.40;97267.22;5046109;28;20106;-64
2023/09/11 03:15:30;;;;;;;0.57;0.57;;;;;;;12.96;91.68;97271.06;5063907;28;20060;-65
2023/09/11 03:17:57;;;;;;;0.60;0.60;;;;;;;13.08;90.71;97276.44;5064439;28;20048;-64
2023/09/11 03:20:24;;;;;;;0.57;0.57;;;;;;;13.05;90.88;97279.16;5050801;28;20049;-65
2023/09/11 03:22:50;;;;;;;0.52;0.52;;;;;;;12.43;90.75;97180.72;5022353;28;20053;-65
2023/09/11 03:25:17;;;;;;;0.50;0.50;;;;;;;13.06;90.18;97266.84;5023041;28;20171;-66
2023/09/11 03:27:44;;;;;;;0.52;0.52;;;;;;;12.94;90.74;97267.09;5022679;28;20049;-63
2023/09/11 03:30:11;;;;;;;0.50;0.50;;;;;;;12.66;90.37;97223.06;5023800;28;20054;-65
2023/09/11 03:32:38;;;;;;;0.57;0.57;;;;;;;12.89;90.27;97279.34;5023771;28;20068;-64
2023/09/11 03:35:06;;;;;;;0.50;0.50;;;;;;;12.76;90.87;97272.44;5023813;28;20284;-65
2023/09/11 03:37:33;;;;;;;0.50;0.50;;;;;;;12.68;92.38;97267.97;5038877;28;20045;-66
2023/09/11 03:40:00;;;;;;;0.60;0.60;;;;;;;12.29;92.12;97204.75;5022928;28;20061;-64
2023/09/11 03:42:27;;;;;;;0.60;0.60;;;;;;;12.78;91.91;97267.31;5023942;28;20057;-64
2023/09/11 03:44:54;;;;;;;0.45;0.45;;;;;;;12.72;92.55;97273.59;5023780;28;20041;-64
2023/09/11 03:47:21;;;;;;;0.50;0.50;;;;;;;12.67;93.18;97271.13;5023935;28;20504;-66
2023/09/11 03:49:48;;;;;;;0.50;0.50;;;;;;;12.28;92.89;97206.75;5023680;28;20065;-64
2023/09/11 03:52:14;;;;;;;0.50;0.50;;;;;;;12.64;92.52;97286.59;5023749;28;20054;-64
2023/09/11 03:54:41;;;;;;;0.57;0.57;;;;;;;12.64;91.81;97258.81;5023840;28;20051;-64
2023/09/11 03:57:08;;;;;;;0.50;0.50;;;;;;;12.60;92.26;97282.16;5022084;28;20053;-65
2023/09/11 03:59:35;;;;;;;0.60;0.60;;;;;;;12.55;92.34;97286.06;5023202;28;20516;-64
2023/09/11 04:02:01;;;;;;;0.50;0.50;;;;;;;12.60;92.75;97285.72;5023669;28;20065;-64
2023/09/11 04:04:28;;;;;;;0.50;0.50;;;;;;;11.66;92.27;97143.63;5022982;28;20053;-64
2023/09/11 04:06:55;;;;;;;0.50;0.50;;;;;;;12.37;94.33;97293.38;5023428;28;20057;-65
2023/09/11 04:09:22;;;;;;;0.50;0.50;;;;;;;12.41;93.70;97294.22;5023787;28;20053;-63
2023/09/11 04:11:49;;;;;;;0.55;0.55;;;;;;;12.33;94.06;97286.94;5038528;28;20077;-63
2023/09/11 04:14:16;;;;;;;0.60;0.60;;;;;;;12.43;92.83;97291.84;5023715;28;20524;-64
2023/09/11 04:16:42;;;;;;;0.50;0.50;;;;;;;12.44;93.40;97310.13;5023717;28;20050;-64
2023/09/11 04:19:09;;;;;;;0.50;0.50;;;;;;;12.53;93.23;97296.78;5025458;28;20140;-66
2023/09/11 04:21:36;;;;;;;0.50;0.50;;;;;;;12.51;92.09;97282.44;5049417;28;20045;-64
2023/09/11 04:24:03;;;;;;;0.50;0.50;;;;;;;11.41;92.19;97123.78;5062866;28;20570;-64
2023/09/11 04:26:30;;;;;;;0.50;0.50;;;;;;;12.72;91.91;97304.97;5062959;28;20102;-65
2023/09/11 04:28:57;;;;;;;0.55;0.55;;;;;;;12.47;91.78;97253.78;5062997;28;20157;-64
2023/09/11 04:31:23;;;;;;;0.50;0.50;;;;;;;12.46;91.13;97240.28;5062671;28;20176;-64
2023/09/11 04:33:50;;;;;;;0.50;0.50;;;;;;;12.80;91.32;97266.94;5051907;28;20052;-66
2023/09/11 04:36:17;;;;;;;0.50;0.50;;;;;;;13.01;89.84;97290.25;5047339;28;20059;-64
2023/09/11 04:38:43;;;;;;;0.50;0.50;;;;;;;13.19;89.98;97307.94;5048728;28;20110;-65
2023/09/11 04:41:10;;;;;;;0.50;0.50;;;;;;;13.30;88.81;97308.84;5066313;28;20084;-65
2023/09/11 04:43:37;;;;;;;0.60;0.60;;;;;;;13.42;88.29;97294.66;5066897;28;20067;-64
2023/09/11 04:46:04;;;;;;;0.57;0.57;;;;;;;13.47;87.91;97299.06;5066665;28;20541;-65
2023/09/11 04:48:30;;;;;;;0.60;0.60;;;;;;;13.42;87.59;97307.78;5066640;28;20055;-64
2023/09/11 04:50:57;;;;;;;0.50;0.50;;;;;;;13.70;87.08;97300.47;5066459;28;20056;-64
2023/09/11 04:53:24;;;;;;;0.60;0.60;;;;;;;12.90;87.00;97188.41;5066622;28;20044;-66
2023/09/11 04:55:51;;;;;;;0.50;0.50;;;;;;;13.76;86.84;97302.91;5066647;28;20060;-64
2023/09/11 04:58:17;;;;;;;0.55;0.55;;;;;;;13.56;85.91;97249.47;5066856;28;20056;-64
2023/09/11 05:00:44;;;;;;;0.57;0.57;;;;;;;13.94;86.74;97292.75;5066404;28;20057;-64
2023/09/11 05:03:11;;;;;;;0.50;0.50;;;;;;;14.05;86.44;97301.97;5065278;28;20408;-64
2023/09/11 05:05:40;;;;;;;0.60;0.60;;;;;;;14.29;85.82;97304.94;5066300;28;20469;-64
2023/09/11 05:08:08;;;;;;;0.60;0.60;;;;;;;14.45;84.51;97301.88;5066632;28;20045;-64
2023/09/11 05:10:39;;;;;;;0.70;0.70;;;;;;;14.43;84.33;97299.47;5066125;28;20113;-64
2023/09/11 05:13:05;;;;;;;0.60;0.60;;;;;;;14.69;83.50;97295.63;5048518;28;20059;-64
2023/09/11 05:15:32;;;;;;;0.60;0.60;;;;;;;14.51;83.42;97255.72;5066390;28;20201;-64
2023/09/11 05:17:59;;;;;;;0.60;0.60;;;;;;;14.03;82.72;97173.44;5048225;28;20044;-64
2023/09/11 05:20:26;;;;;;;0.68;0.68;;;;;;;14.86;83.01;97289.31;5066216;28;20488;-64
2023/09/11 05:22:53;;;;;;;0.60;0.60;;;;;;;15.00;83.01;97290.19;5066105;28;20060;-64
2023/09/11 05:25:20;;;;;;;0.63;0.63;;;;;;;14.91;81.94;97241.53;5066156;28;20450;-65
2023/09/11 05:27:47;;;;;;;0.60;0.60;;;;;;;15.39;81.15;97279.19;5048062;28;20601;-65
2023/09/11 05:30:13;;;;;;;0.60;0.60;;;;;;;15.65;80.26;97276.00;5065539;28;20055;-66
2023/09/11 05:32:40;;;;;;;0.70;0.70;;;;;;;13.51;79.21;96896.38;5065738;28;20114;-60
2023/09/11 05:35:07;;;;;;;0.70;0.70;;;;;;;16.00;78.66;97287.19;5065821;28;20059;-65
2023/09/11 05:37:34;;;;;;;0.60;0.60;;;;;;;16.01;79.69;97277.63;5047901;28;20061;-65
2023/09/11 05:40:02;;;;;;;0.68;0.68;;;;;;;16.28;78.69;97276.00;5065712;28;20048;-64
2023/09/11 05:42:29;;;;;;;0.70;0.70;;;;;;;16.61;77.42;97275.53;5065816;28;20491;-65
2023/09/11 05:44:56;;;;;;;0.70;0.70;;;;;;;16.76;76.70;97256.72;5066013;28;20044;-64
2023/09/11 05:47:23;;;;;;;0.70;0.70;;;;;;;16.82;75.34;97245.94;5046324;28;20139;-65
2023/09/11 05:49:49;;;;;;;0.80;0.80;;;;;;;17.23;74.22;97266.53;5063072;28;20798;-60
2023/09/11 05:52:16;;;;;;;0.70;0.70;;;;;;;16.41;74.15;97139.34;5066694;28;20059;-64
2023/09/11 05:54:43;;;;;;;0.80;0.80;;;;;;;16.64;73.77;97143.28;5063693;28;20057;-64
2023/09/11 05:57:10;;;;;;;0.70;0.70;;;;;;;17.68;72.79;97271.06;5064891;28;20057;-64
2023/09/11 05:59:37;;;;;;;0.73;0.73;;;;;;;17.91;72.01;97271.25;5053559;28;20048;-64
2023/09/11 06:02:04;;;;;;;0.80;0.80;;;;;;;17.21;71.31;97120.53;5078430;28;20068;-64
2023/09/11 06:04:31;;;;;;;0.80;0.80;;;;;;;17.86;70.73;97210.06;5069607;28;20059;-62
2023/09/11 06:06:58;;;;;;;0.80;0.80;;;;;;;18.33;69.77;97267.28;5068175;28;20045;-63
2023/09/11 06:09:24;;;;;;;0.80;0.80;;;;;;;18.56;68.95;97271.09;5072303;28;20059;-63
2023/09/11 06:11:52;;;;;;;0.80;0.80;;;;;;;18.73;68.07;97272.91;5067157;28;20522;-63
2023/09/11 06:14:19;;;;;;;0.90;0.90;;;;;;;18.87;67.82;97267.16;5064058;28;20052;-62
2023/09/11 06:16:45;;;;;;;0.80;0.80;;;;;;;19.11;65.89;97271.63;5064278;28;20082;-62
2023/09/11 06:19:12;;;;;;;0.82;0.82;;;;;;;19.21;63.93;97276.34;5063568;28;20049;-63
2023/09/11 06:21:39;;;;;;;0.90;0.90;;;;;;;19.09;61.75;97248.00;5064561;28;20048;-61
2023/09/11 06:24:06;;;;;;;0.80;0.80;;;;;;;19.58;61.62;97266.22;5063029;28;20491;-63
2023/09/11 06:26:33;;;;;;;0.90;0.90;;;;;;;19.87;57.96;97273.78;5064031;28;20078;-63
2023/09/11 06:29:00;;;;;;;0.90;0.90;;;;;;;20.03;56.91;97270.34;5063379;28;20056;-58
2023/09/11 06:31:26;;;;;;;0.90;0.90;;;;;;;19.36;55.42;97232.78;5064264;28;20052;-61
2023/09/11 06:33:53;;;;;;;0.90;0.90;;;;;;;19.89;55.29;97270.56;5067086;28;20061;-62
2023/09/11 06:36:20;;;;;;;0.90;0.90;;;;;;;19.95;55.16;97212.63;5057740;28;20601;-62
2023/09/11 06:38:46;;;;;;;1.00;1.00;;;;;;;20.56;54.24;97270.22;5062390;28;20052;-62
2023/09/11 06:41:13;;;;;;;1.00;1.00;;;;;;;19.93;52.05;97181.31;5078486;28;20045;-67
2023/09/11 06:43:40;;;;;;;0.93;0.93;;;;;;;20.85;52.43;97265.63;5067137;28;20664;-62
2023/09/11 06:46:07;;;;;;;0.90;0.90;;;;;;;19.13;51.37;97030.50;5070967;28;20048;-68
2023/09/11 06:48:33;;;;;;;0.85;0.85;;;;;;;19.45;51.26;96999.88;5063393;28;20045;-68
2023/09/11 06:51:00;;;;;;;0.90;0.90;;;;;;;21.06;50.03;97237.06;5063842;28;20856;-58
2023/09/11 06:53:27;;;;;;;0.90;0.90;;;;;;;20.93;46.58;97267.09;5062894;28;20050;-60
2023/09/11 06:55:55;;;;;;;0.90;0.90;;;;;;;21.09;48.12;97263.59;5063770;28;20056;-65
2023/09/11 06:58:22;;;;;;;0.80;0.80;;;;;;;21.28;45.74;97269.19;5062988;28;20106;-62
2023/09/11 07:00:48;;;;;;;0.90;0.90;;;;;;;21.15;43.35;97223.19;5045483;28;20056;-60
2023/09/11 07:03:17;;;;;;;0.95;0.95;;;;;;;21.13;43.14;97203.13;5062443;28;20082;-65
2023/09/11 07:05:44;;;;;;;1.00;1.00;;;;;;;21.64;43.08;97264.34;5062062;28;20665;-58
2023/09/11 07:08:11;;;;;;;0.90;0.90;;;;;;;21.79;43.32;97250.75;5045198;28;20067;-62
2023/09/11 07:10:37;;;;;;;0.90;0.90;;;;;;;21.72;43.27;97246.06;5062967;28;20451;-63
2023/09/11 07:13:07;;;;;;;1.00;1.00;;;;;;;21.21;41.23;97142.56;5066044;28;20041;-64
2023/09/11 07:15:34;;;;;;;1.10;1.10;;;;;;;22.05;40.99;97253.34;5063720;28;20122;-65
2023/09/11 07:18:01;;;;;;;0.98;0.98;;;;;;;22.36;41.43;97251.75;5063643;28;20057;-63
2023/09/11 07:20:28;;;;;;;1.05;1.05;;;;;;;22.45;40.91;97236.97;5062120;28;20052;-64
2023/09/11 07:22:55;;;;;;;0.90;0.90;;;;;;;22.62;39.43;97240.63;5063400;28;20102;-62
2023/09/11 07:25:22;;;;;;;1.00;1.00;;;;;;;22.67;39.13;97221.06;5063193;28;20593;-63
2023/09/11 07:27:54;;;;;;;0.98;0.98;;;;;;;23.11;38.06;97256.94;5062735;28;20048;-62
2023/09/11 07:30:21;;;;;;;1.10;1.10;;;;;;;23.02;37.60;97241.88;5063750;28;20052;-66
2023/09/11 07:32:48;;;;;;;1.00;1.00;;;;;;;22.87;35.95;97190.66;5063338;28;20513;-68
2023/09/11 07:35:15;;;;;;;1.00;1.00;;;;;;;23.49;36.32;97266.34;5045383;28;20059;-60
2023/09/11 07:37:42;;;;;;;1.00;1.00;;;;;;;23.57;35.51;97256.41;5044933;28;20513;-61
2023/09/11 07:40:09;;;;;;;1.00;1.00;;;;;;;23.16;35.26;97202.69;5063054;28;20055;-69
2023/09/11 07:42:36;;;;;;;1.00;1.00;;;;;;;23.67;35.54;97265.81;5063148;28;20048;-69
2023/09/11 07:45:03;;;;;;;1.10;1.10;;;;;;;22.19;35.59;97013.09;5062407;28;20056;-64
2023/09/11 07:47:30;;;;;;;0.90;0.90;;;;;;;23.94;34.99;97257.66;5045232;28;20052;-61
2023/09/11 07:49:57;;;;;;;1.10;1.10;;;;;;;23.23;32.98;97139.50;5066105;28;20756;-62
2023/09/11 07:52:24;;;;;;;1.00;1.00;;;;;;;24.14;31.68;97265.97;5063126;28;20052;-62
2023/09/11 07:54:50;;;;;;;1.00;1.00;;;;;;;24.19;32.97;97254.84;5061854;28;20065;-62
2023/09/11 07:57:17;;;;;;;1.00;1.00;;;;;;;23.96;31.79;97211.94;5062282;28;20052;-60
2023/09/11 07:59:44;;;;;;;1.00;1.00;;;;;;;24.28;32.42;97254.94;5071134;28;20051;-61
2023/09/11 08:02:11;;;;;;;1.00;1.00;;;;;;;24.36;32.90;97256.28;5090771;28;20093;-62
2023/09/11 08:04:38;;;;;;;1.05;1.05;;;;;;;23.55;32.30;97275.84;5082745;28;20056;-61
2023/09/11 08:07:05;;;;;;;1.20;1.20;;;;;;;23.61;32.09;97247.81;5083277;28;20056;-61
2023/09/11 08:09:31;;;;;;;0.98;0.98;;;;;;;22.60;32.49;97141.41;5063166;28;20040;-61
2023/09/11 08:12:00;;;;;;;1.10;1.10;;;;;;;22.95;32.84;97202.53;5082505;28;20105;-61
2023/09/11 08:14:27;;;;;;;1.10;1.10;;;;;;;23.24;33.12;97180.66;5087168;28;20052;-60
2023/09/11 08:16:53;;;;;;;1.10;1.10;;;;;;;24.15;32.59;97250.56;5067038;28;20052;-62
2023/09/11 08:19:20;;;;;;;1.00;1.00;;;;;;;24.00;32.71;97238.91;5084673;28;20059;-61
2023/09/11 08:21:47;;;;;;;1.20;1.20;;;;;;;23.98;32.69;97252.72;5085333;28;20470;-62
2023/09/11 08:24:14;;;;;;;1.00;1.00;;;;;;;23.20;32.79;97124.25;5085949;28;20048;-62
2023/09/11 08:26:40;;;;;;;1.10;1.10;;;;;;;23.23;32.58;97094.28;5067164;28;20044;-62
2023/09/11 08:29:10;;;;;;;1.00;1.00;;;;;;;24.38;33.08;97242.47;5084683;28;20075;-60
2023/09/11 08:31:37;;;;;;;1.20;1.20;;;;;;;24.45;32.67;97242.25;5084908;28;20138;-66
2023/09/11 08:34:04;;;;;;;1.10;1.10;;;;;;;23.85;32.69;97093.44;5067980;28;20044;-66
2023/09/11 08:36:31;;;;;;;1.10;1.10;;;;;;;24.13;32.89;97163.25;5086855;28;20055;-62
2023/09/11 08:38:59;;;;;;;1.20;1.20;;;;;;;24.54;32.36;97208.31;5087105;28;20136;-65
2023/09/11 08:41:26;;;;;;;1.10;1.10;;;;;;;24.96;32.58;97231.53;5065217;28;20577;-63
2023/09/11 08:43:53;;;;;;;1.10;1.10;;;;;;;24.65;32.64;97166.25;5084859;28;20147;-61
2023/09/11 08:46:21;;;;;;;1.10;1.10;;;;;;;24.81;33.31;97230.47;5084817;28;20052;-61
2023/09/11 08:48:52;;;;;;;1.15;1.15;;;;;;;24.35;33.20;97164.09;5084984;28;20048;-64
2023/09/11 08:51:29;;;;;;;1.10;1.10;;;;;;;24.46;32.61;97192.81;5083875;28;21019;-61
2023/09/11 08:53:56;;;;;;;1.13;1.13;;;;;;;24.28;33.92;97175.66;5060535;28;20052;-64
2023/09/11 08:56:23;;;;;;;1.10;1.10;;;;;;;24.74;33.86;97220.16;5081306;28;20087;-64
2023/09/11 08:58:53;;;;;;;1.25;1.25;;;;;;;24.92;33.07;97220.31;5091857;28;20473;-62
2023/09/11 09:01:21;;;;;;;1.10;1.10;;;;;;;24.78;33.95;97226.50;5085960;28;20055;-63
2023/09/11 09:03:50;;;;;;;1.10;1.10;;;;;;;24.95;34.56;97221.44;5077575;28;20528;-60
2023/09/11 09:06:18;;;;;;;1.38;1.38;;;;;;;25.03;34.93;97215.06;5073699;28;20541;-63
2023/09/11 09:08:46;;;;;;;1.30;1.30;;;;;;;25.16;33.83;97217.81;5084701;28;20843;-62
2023/09/11 09:11:13;;;;;;;1.10;1.10;;;;;;;25.14;34.30;97209.78;5084819;28;20109;-61
2023/09/11 09:13:40;;;;;;;1.00;1.00;;;;;;;25.48;33.93;97223.09;5085836;28;20048;-62
2023/09/11 09:16:07;;;;;;;1.50;1.50;;;;;;;25.01;32.58;97160.84;5083415;28;20104;-61
2023/09/11 09:18:34;;;;;;;1.30;1.30;;;;;;;24.78;33.66;97180.38;5084842;28;20124;-65
2023/09/11 09:21:01;;;;;;;1.20;1.20;;;;;;;25.07;33.59;97206.44;5084238;28;20043;-65
2023/09/11 09:23:35;;;;;;;1.10;1.10;;;;;;;24.70;33.74;97151.50;5065534;28;20074;-59
2023/09/11 09:26:06;;;;;;;1.10;1.10;;;;;;;24.61;34.80;97202.38;5082760;28;20071;-61
2023/09/11 09:28:34;;;;;;;1.08;1.08;;;;;;;24.77;35.17;97179.56;5058738;28;20116;-64
2023/09/11 09:31:03;;;;;;;1.00;1.00;;;;;;;24.76;34.87;97206.34;5081998;28;20059;-64
2023/09/11 09:33:41;;;;;;;1.30;1.30;;;;;;;25.23;34.64;97201.31;5068923;28;20160;-64
2023/09/11 09:36:08;;;;;;;1.50;1.50;;;;;;;25.59;34.04;97192.25;5085246;28;20047;-63
2023/09/11 09:38:35;;;;;;;1.30;1.30;;;;;;;25.82;34.30;97197.38;5085178;28;20485;-63
2023/09/11 09:41:10;;;;;;;1.13;1.13;;;;;;;26.02;33.67;97188.50;5085560;28;20137;-62
2023/09/11 09:43:37;;;;;;;1.20;1.20;;;;;;;25.98;32.79;97176.47;5067165;28;20056;-63
2023/09/11 09:46:18;;;;;;;1.27;1.27;;;;;;;25.74;33.87;97178.25;5067520;28;20125;-63
2023/09/11 09:48:45;;;;;;;1.50;1.50;;;;;;;26.09;33.41;97165.47;5065191;28;20044;-62
2023/09/11 09:51:13;;;;;;;1.20;1.20;;;;;;;26.03;33.02;97124.78;5080367;28;20051;-60
2023/09/11 09:53:41;;;;;;;1.50;1.50;;;;;;;25.77;32.85;97178.13;5071287;28;20047;-58
2023/09/11 09:56:11;;;;;;;1.30;1.30;;;;;;;26.12;33.91;97175.88;5085314;28;20097;-62
2023/09/11 09:58:43;;;;;;;1.23;1.23;;;;;;;25.40;33.70;97175.59;5086242;28;20505;-62
2023/09/11 10:01:13;;;;;;;;;;;;;;;25.72;32.79;97169.44;5086073;28;20062;-59
2023/09/11 10:03:42;;;;;;;1.30;1.30;;;;;;;25.71;32.92;97173.53;5084804;28;19939;-61
2023/09/11 10:06:13;;;;;;;1.40;1.40;;;;;;;26.23;32.88;97176.22;5084577;28;20548;-61
2023/09/11 10:08:40;;;;;;;1.25;1.25;;;;;;;26.57;32.58;97161.75;5082378;28;20043;-59
2023/09/11 10:11:07;;;;;;;1.40;1.40;;;;;;;26.73;32.01;97169.97;5084276;28;20052;-58
2023/09/11 10:13:36;;;;;;;1.50;1.50;;;;;;;26.90;31.89;97162.72;5084446;28;20047;-62
2023/09/11 10:16:03;;;;;;;1.80;1.80;;;;;;;26.83;31.16;97168.72;5083172;28;20058;-56
2023/09/11 10:18:33;;;;;;;1.50;1.50;;;;;;;26.57;31.24;97173.13;5084136;28;20589;-61
2023/09/11 10:21:00;;;;;;;1.50;1.50;;;;;;;25.95;31.32;97055.31;5065908;28;21193;-64
2023/09/11 10:23:27;;;;;;;1.63;1.63;;;;;;;26.26;32.37;97176.09;5083737;28;20051;-63
2023/09/11 10:26:01;;;;;;;1.67;1.67;;;;;;;26.61;31.42;97162.38;5084196;28;20070;-61
2023/09/11 10:28:52;;;;;;;1.42;1.42;;;;;;;27.01;31.60;97156.53;5084552;28;20492;-61
2023/09/11 10:32:14;;;;;;;1.40;1.40;;;;;;;27.24;30.76;97148.09;5085986;28;20110;-60
2023/09/11 10:34:40;;;;;;;1.25;1.25;;;;;;;27.35;30.55;97151.28;5083382;28;20052;-62
2023/09/11 10:37:07;;;;;;;1.38;1.38;;;;;;;27.27;29.91;97147.19;5084989;28;20051;-59
2023/09/11 10:39:37;;;;;;;1.52;1.52;;;;;;;27.07;30.26;97149.75;5082947;28;20067;-61
2023/09/11 10:42:04;;;;;;;1.50;1.50;;;;;;;26.45;30.53;97132.22;5082934;28;20074;-60
2023/09/11 10:44:35;;;;;;;1.60;1.60;;;;;;;26.59;30.56;97142.97;5084534;28;20052;-61
2023/09/11 10:47:03;;;;;;;1.38;1.38;;;;;;;26.88;30.13;97102.69;5082846;28;20075;-59
2023/09/11 10:49:36;;;;;;;1.40;1.40;;;;;;;27.22;29.85;97099.44;5083851;28;20048;-61
2023/09/11 10:52:05;;;;;;;1.70;1.70;;;;;;;27.77;30.15;97134.97;5082420;28;20058;-61
2023/09/11 10:54:34;;;;;;;1.70;1.70;;;;;;;27.96;29.56;97130.00;5084101;28;20048;-61
2023/09/11 10:57:01;;;;;;;1.73;1.73;;;;;;;28.17;29.78;97123.22;5084297;28;20442;-58
2023/09/11 10:59:29;;;;;;;1.55;1.55;;;;;;;27.73;29.01;97136.41;5087638;28;20048;-63
2023/09/11 11:01:56;;;;;;;1.67;1.67;;;;;;;27.54;29.63;97138.56;5083383;28;20424;-60
2023/09/11 11:04:24;;;;;;;1.75;1.75;;;;;;;27.55;29.17;97105.97;5083480;28;20051;-60
2023/09/11 11:06:56;;;;;;;1.70;1.70;;;;;;;27.59;28.52;97083.81;5081516;28;20138;-62
2023/09/11 11:09:23;;;;;;;1.45;1.45;;;;;;;27.81;29.18;97118.50;5082567;28;20056;-61
2023/09/11 11:12:01;;;;;;;1.58;1.58;;;;;;;28.03;28.64;97119.03;5070687;28;20219;-59
2023/09/11 11:14:28;;;;;;;1.60;1.60;;;;;;;28.29;28.83;97124.25;5083264;28;20133;-60
2023/09/11 11:16:59;;;;;;;1.70;1.70;;;;;;;28.59;28.59;97120.25;5063845;28;20649;-61
2023/09/11 11:19:37;;;;;;;1.73;1.73;;;;;;;27.65;29.13;97118.91;5081503;28;20066;-61
2023/09/11 11:22:07;;;;;;;1.65;1.65;;;;;;;27.65;29.73;97070.50;5079749;28;20055;-64
2023/09/11 11:24:50;;;;;;;1.75;1.75;;;;;;;26.89;28.97;97123.41;5086409;28;20141;-61
2023/09/11 11:27:17;;;;;;;1.50;1.50;;;;;;;26.96;29.85;97112.47;5099110;28;20047;-60
2023/09/11 11:29:44;;;;;;;1.60;1.60;;;;;;;27.51;28.83;97096.03;5083231;28;20048;-61
2023/09/11 11:32:13;;;;;;;1.40;1.40;;;;;;;27.42;27.89;97108.25;5085794;28;20529;-66
2023/09/11 11:34:42;;;;;;;1.33;1.33;;;;;;;27.11;28.09;97070.69;5081760;28;20048;-60
2023/09/11 11:37:13;;;;;;;1.80;1.80;;;;;;;27.10;27.67;97091.91;5080902;28;20048;-64
2023/09/11 11:39:40;;;;;;;1.55;1.55;;;;;;;27.24;28.54;97102.59;5081139;28;20720;-59